sensor_id;sensor_type;location;lat;lon;timestamp;P1;durP1;ratioP1;P2;durP2;ratioP2
19084;SDS011;9675;51.538;6.728;2023-04-24T00:01:59;0.30;;;0.30;;
19084;SDS011;9675;51.538;6.728;2023-04-24T00:04:27;0.20;;;0.13;;
19084;SDS011;9675;51.538;6.728;2023-04-24T00:06:54;1.80;;;0.37;;
19084;SDS011;9675;51.538;6.728;2023-04-24T00:09:23;1.23;;;0.60;;
19084;SDS011;9675;51.538;6.728;2023-04-24T00:11:50;1.37;;;0.60;;
19084;SDS011;9675;51.538;6.728;2023-04-24T00:14:18;0.73;;;0.40;;
19084;SDS011;9675;51.538;6.728;2023-04-24T00:16:45;2.87;;;0.70;;
19084;SDS011;9675;51.538;6.728;2023-04-24T00:19:12;0.73;;;0.63;;
19084;SDS011;9675;51.538;6.728;2023-04-24T00:21:39;1.33;;;0.90;;
19084;SDS011;9675;51.538;6.728;2023-04-24T00:24:07;0.77;;;0.63;;
19084;SDS011;9675;51.538;6.728;2023-04-24T00:26:36;1.20;;;0.70;;
19084;SDS011;9675;51.538;6.728;2023-04-24T00:29:03;1.93;;;1.10;;
19084;SDS011;9675;51.538;6.728;2023-04-24T00:31:30;1.70;;;0.60;;
19084;SDS011;9675;51.538;6.728;2023-04-24T00:33:59;0.90;;;0.77;;
19084;SDS011;9675;51.538;6.728;2023-04-24T00:36:27;2.17;;;1.00;;
19084;SDS011;9675;51.538;6.728;2023-04-24T00:38:55;1.20;;;0.63;;
19084;SDS011;9675;51.538;6.728;2023-04-24T00:41:23;1.43;;;0.60;;
19084;SDS011;9675;51.538;6.728;2023-04-24T00:43:53;0.90;;;0.70;;
19084;SDS011;9675;51.538;6.728;2023-04-24T00:46:20;2.13;;;1.03;;
19084;SDS011;9675;51.538;6.728;2023-04-24T00:48:48;3.73;;;1.00;;
19084;SDS011;9675;51.538;6.728;2023-04-24T00:51:16;1.83;;;0.93;;
19084;SDS011;9675;51.538;6.728;2023-04-24T00:53:43;1.70;;;1.30;;
19084;SDS011;9675;51.538;6.728;2023-04-24T00:56:10;2.50;;;0.87;;
19084;SDS011;9675;51.538;6.728;2023-04-24T00:58:37;2.90;;;0.90;;
19084;SDS011;9675;51.538;6.728;2023-04-24T01:01:08;1.33;;;1.23;;
19084;SDS011;9675;51.538;6.728;2023-04-24T01:03:36;2.50;;;1.40;;
19084;SDS011;9675;51.538;6.728;2023-04-24T01:06:04;2.07;;;1.40;;
19084;SDS011;9675;51.538;6.728;2023-04-24T01:08:33;7.53;;;1.43;;
19084;SDS011;9675;51.538;6.728;2023-04-24T01:11:03;2.27;;;1.47;;
19084;SDS011;9675;51.538;6.728;2023-04-24T01:13:31;4.67;;;1.73;;
19084;SDS011;9675;51.538;6.728;2023-04-24T01:15:59;1.77;;;1.07;;
19084;SDS011;9675;51.538;6.728;2023-04-24T01:18:28;4.87;;;1.73;;
19084;SDS011;9675;51.538;6.728;2023-04-24T01:20:56;2.80;;;1.37;;
19084;SDS011;9675;51.538;6.728;2023-04-24T01:23:30;2.43;;;1.57;;
19084;SDS011;9675;51.538;6.728;2023-04-24T01:25:57;2.30;;;1.27;;
19084;SDS011;9675;51.538;6.728;2023-04-24T01:28:25;3.70;;;1.97;;
19084;SDS011;9675;51.538;6.728;2023-04-24T01:30:52;2.80;;;2.00;;
19084;SDS011;9675;51.538;6.728;2023-04-24T01:33:20;3.73;;;1.70;;
19084;SDS011;9675;51.538;6.728;2023-04-24T01:35:48;4.40;;;2.20;;
19084;SDS011;9675;51.538;6.728;2023-04-24T01:38:15;4.67;;;2.40;;
19084;SDS011;9675;51.538;6.728;2023-04-24T01:40:44;3.63;;;1.67;;
19084;SDS011;9675;51.538;6.728;2023-04-24T01:43:11;5.27;;;2.23;;
19084;SDS011;9675;51.538;6.728;2023-04-24T01:45:38;2.03;;;1.30;;
19084;SDS011;9675;51.538;6.728;2023-04-24T01:48:06;3.13;;;2.10;;
19084;SDS011;9675;51.538;6.728;2023-04-24T01:50:33;4.70;;;2.67;;
19084;SDS011;9675;51.538;6.728;2023-04-24T01:53:00;3.93;;;2.17;;
19084;SDS011;9675;51.538;6.728;2023-04-24T01:55:27;3.47;;;2.17;;
19084;SDS011;9675;51.538;6.728;2023-04-24T01:57:56;5.57;;;2.33;;
19084;SDS011;9675;51.538;6.728;2023-04-24T02:00:25;4.27;;;2.90;;
19084;SDS011;9675;51.538;6.728;2023-04-24T02:02:52;7.03;;;2.87;;
19084;SDS011;9675;51.538;6.728;2023-04-24T02:05:19;9.33;;;2.53;;
19084;SDS011;9675;51.538;6.728;2023-04-24T02:07:47;5.77;;;2.20;;
19084;SDS011;9675;51.538;6.728;2023-04-24T02:10:14;3.17;;;1.17;;
19084;SDS011;9675;51.538;6.728;2023-04-24T02:12:41;3.93;;;2.30;;
19084;SDS011;9675;51.538;6.728;2023-04-24T02:15:10;5.50;;;1.90;;
19084;SDS011;9675;51.538;6.728;2023-04-24T02:17:37;9.07;;;2.40;;
19084;SDS011;9675;51.538;6.728;2023-04-24T02:20:05;4.20;;;2.60;;
19084;SDS011;9675;51.538;6.728;2023-04-24T02:22:33;5.93;;;2.80;;
19084;SDS011;9675;51.538;6.728;2023-04-24T02:25:01;6.87;;;2.90;;
19084;SDS011;9675;51.538;6.728;2023-04-24T02:27:28;4.53;;;3.07;;
19084;SDS011;9675;51.538;6.728;2023-04-24T02:29:55;7.40;;;3.20;;
19084;SDS011;9675;51.538;6.728;2023-04-24T02:32:24;8.17;;;3.50;;
19084;SDS011;9675;51.538;6.728;2023-04-24T02:34:50;7.93;;;3.37;;
19084;SDS011;9675;51.538;6.728;2023-04-24T02:37:17;6.27;;;3.57;;
19084;SDS011;9675;51.538;6.728;2023-04-24T02:39:45;5.80;;;3.17;;
19084;SDS011;9675;51.538;6.728;2023-04-24T02:42:12;11.53;;;3.30;;
19084;SDS011;9675;51.538;6.728;2023-04-24T02:44:39;7.47;;;2.87;;
19084;SDS011;9675;51.538;6.728;2023-04-24T02:47:06;6.07;;;3.87;;
19084;SDS011;9675;51.538;6.728;2023-04-24T02:49:35;5.07;;;2.70;;
19084;SDS011;9675;51.538;6.728;2023-04-24T02:52:02;4.97;;;2.70;;
19084;SDS011;9675;51.538;6.728;2023-04-24T02:54:29;7.33;;;4.10;;
19084;SDS011;9675;51.538;6.728;2023-04-24T02:56:56;8.00;;;4.23;;
19084;SDS011;9675;51.538;6.728;2023-04-24T02:59:23;7.40;;;3.83;;
19084;SDS011;9675;51.538;6.728;2023-04-24T03:01:52;13.77;;;3.90;;
19084;SDS011;9675;51.538;6.728;2023-04-24T03:04:19;7.17;;;4.03;;
19084;SDS011;9675;51.538;6.728;2023-04-24T03:06:48;8.60;;;3.83;;
19084;SDS011;9675;51.538;6.728;2023-04-24T03:09:17;8.60;;;4.00;;
19084;SDS011;9675;51.538;6.728;2023-04-24T03:11:44;12.77;;;5.53;;
19084;SDS011;9675;51.538;6.728;2023-04-24T03:14:11;9.20;;;4.17;;
19084;SDS011;9675;51.538;6.728;2023-04-24T03:16:38;10.93;;;4.50;;
19084;SDS011;9675;51.538;6.728;2023-04-24T03:19:05;12.43;;;3.77;;
19084;SDS011;9675;51.538;6.728;2023-04-24T03:21:32;13.93;;;4.10;;
19084;SDS011;9675;51.538;6.728;2023-04-24T03:24:02;9.83;;;4.07;;
19084;SDS011;9675;51.538;6.728;2023-04-24T03:26:29;12.43;;;5.40;;
19084;SDS011;9675;51.538;6.728;2023-04-24T03:28:56;11.60;;;5.07;;
19084;SDS011;9675;51.538;6.728;2023-04-24T03:31:23;8.47;;;4.37;;
19084;SDS011;9675;51.538;6.728;2023-04-24T03:33:50;11.47;;;4.40;;
19084;SDS011;9675;51.538;6.728;2023-04-24T03:36:17;8.40;;;4.20;;
19084;SDS011;9675;51.538;6.728;2023-04-24T03:38:44;13.07;;;4.10;;
19084;SDS011;9675;51.538;6.728;2023-04-24T03:41:12;5.80;;;3.90;;
19084;SDS011;9675;51.538;6.728;2023-04-24T03:43:39;8.57;;;4.27;;
19084;SDS011;9675;51.538;6.728;2023-04-24T03:46:06;8.73;;;5.20;;
19084;SDS011;9675;51.538;6.728;2023-04-24T03:48:34;10.70;;;4.77;;
19084;SDS011;9675;51.538;6.728;2023-04-24T03:51:01;9.23;;;4.77;;
19084;SDS011;9675;51.538;6.728;2023-04-24T03:53:28;7.47;;;4.33;;
19084;SDS011;9675;51.538;6.728;2023-04-24T03:55:55;7.47;;;4.13;;
19084;SDS011;9675;51.538;6.728;2023-04-24T03:58:24;11.00;;;6.10;;
19084;SDS011;9675;51.538;6.728;2023-04-24T04:00:51;9.77;;;4.13;;
19084;SDS011;9675;51.538;6.728;2023-04-24T04:03:18;15.70;;;4.93;;
19084;SDS011;9675;51.538;6.728;2023-04-24T04:05:45;10.67;;;4.00;;
19084;SDS011;9675;51.538;6.728;2023-04-24T04:08:12;10.57;;;5.50;;
19084;SDS011;9675;51.538;6.728;2023-04-24T04:10:39;5.93;;;3.30;;
19084;SDS011;9675;51.538;6.728;2023-04-24T04:13:06;10.10;;;3.90;;
19084;SDS011;9675;51.538;6.728;2023-04-24T04:15:35;11.27;;;5.50;;
19084;SDS011;9675;51.538;6.728;2023-04-24T04:18:02;9.40;;;4.73;;
19084;SDS011;9675;51.538;6.728;2023-04-24T04:20:29;10.33;;;4.70;;
19084;SDS011;9675;51.538;6.728;2023-04-24T04:22:56;9.80;;;4.70;;
19084;SDS011;9675;51.538;6.728;2023-04-24T04:25:23;10.77;;;4.87;;
19084;SDS011;9675;51.538;6.728;2023-04-24T04:27:50;9.43;;;5.00;;
19084;SDS011;9675;51.538;6.728;2023-04-24T04:30:18;9.23;;;4.60;;
19084;SDS011;9675;51.538;6.728;2023-04-24T04:32:47;10.13;;;5.03;;
19084;SDS011;9675;51.538;6.728;2023-04-24T04:35:14;9.93;;;5.60;;
19084;SDS011;9675;51.538;6.728;2023-04-24T04:37:41;9.80;;;5.00;;
19084;SDS011;9675;51.538;6.728;2023-04-24T04:40:08;8.60;;;3.70;;
19084;SDS011;9675;51.538;6.728;2023-04-24T04:42:36;10.67;;;5.27;;
19084;SDS011;9675;51.538;6.728;2023-04-24T04:45:05;8.93;;;4.00;;
19084;SDS011;9675;51.538;6.728;2023-04-24T04:47:36;11.40;;;5.30;;
19084;SDS011;9675;51.538;6.728;2023-04-24T04:50:06;8.43;;;4.50;;
19084;SDS011;9675;51.538;6.728;2023-04-24T04:52:34;11.70;;;4.80;;
19084;SDS011;9675;51.538;6.728;2023-04-24T04:55:01;7.13;;;3.33;;
19084;SDS011;9675;51.538;6.728;2023-04-24T04:57:28;7.30;;;3.50;;
19084;SDS011;9675;51.538;6.728;2023-04-24T04:59:56;7.87;;;4.87;;
19084;SDS011;9675;51.538;6.728;2023-04-24T05:02:24;5.30;;;3.53;;
19084;SDS011;9675;51.538;6.728;2023-04-24T05:04:51;5.43;;;3.43;;
19084;SDS011;9675;51.538;6.728;2023-04-24T05:07:19;9.07;;;4.37;;
19084;SDS011;9675;51.538;6.728;2023-04-24T05:09:46;8.47;;;3.70;;
19084;SDS011;9675;51.538;6.728;2023-04-24T05:12:13;6.83;;;3.93;;
19084;SDS011;9675;51.538;6.728;2023-04-24T05:14:40;7.73;;;3.87;;
19084;SDS011;9675;51.538;6.728;2023-04-24T05:17:07;10.13;;;4.33;;
19084;SDS011;9675;51.538;6.728;2023-04-24T05:19:35;5.97;;;3.70;;
19084;SDS011;9675;51.538;6.728;2023-04-24T05:22:03;5.73;;;3.40;;
19084;SDS011;9675;51.538;6.728;2023-04-24T05:24:33;8.00;;;3.00;;
19084;SDS011;9675;51.538;6.728;2023-04-24T05:27:00;4.47;;;2.47;;
19084;SDS011;9675;51.538;6.728;2023-04-24T05:29:29;7.43;;;3.60;;
19084;SDS011;9675;51.538;6.728;2023-04-24T05:31:58;6.63;;;3.23;;
19084;SDS011;9675;51.538;6.728;2023-04-24T05:34:26;9.37;;;3.70;;
19084;SDS011;9675;51.538;6.728;2023-04-24T05:36:53;5.87;;;2.60;;
19084;SDS011;9675;51.538;6.728;2023-04-24T05:39:20;5.00;;;2.73;;
19084;SDS011;9675;51.538;6.728;2023-04-24T05:41:48;4.40;;;2.73;;
19084;SDS011;9675;51.538;6.728;2023-04-24T05:44:15;7.27;;;3.37;;
19084;SDS011;9675;51.538;6.728;2023-04-24T05:46:42;5.00;;;3.33;;
19084;SDS011;9675;51.538;6.728;2023-04-24T05:49:09;6.73;;;3.80;;
19084;SDS011;9675;51.538;6.728;2023-04-24T05:51:36;4.97;;;2.97;;
19084;SDS011;9675;51.538;6.728;2023-04-24T05:54:04;5.20;;;2.67;;
19084;SDS011;9675;51.538;6.728;2023-04-24T05:56:31;5.40;;;3.80;;
19084;SDS011;9675;51.538;6.728;2023-04-24T05:59:00;4.90;;;2.77;;
19084;SDS011;9675;51.538;6.728;2023-04-24T06:01:27;4.70;;;2.30;;
19084;SDS011;9675;51.538;6.728;2023-04-24T06:03:54;9.00;;;3.70;;
19084;SDS011;9675;51.538;6.728;2023-04-24T06:06:21;9.10;;;3.77;;
19084;SDS011;9675;51.538;6.728;2023-04-24T06:08:50;5.73;;;3.73;;
19084;SDS011;9675;51.538;6.728;2023-04-24T06:11:18;5.83;;;3.53;;
19084;SDS011;9675;51.538;6.728;2023-04-24T06:13:45;6.57;;;3.63;;
19084;SDS011;9675;51.538;6.728;2023-04-24T06:16:14;4.70;;;2.80;;
19084;SDS011;9675;51.538;6.728;2023-04-24T06:18:43;7.23;;;3.77;;
19084;SDS011;9675;51.538;6.728;2023-04-24T06:21:12;4.97;;;3.33;;
19084;SDS011;9675;51.538;6.728;2023-04-24T06:23:39;6.87;;;3.60;;
19084;SDS011;9675;51.538;6.728;2023-04-24T06:26:06;7.67;;;4.23;;
19084;SDS011;9675;51.538;6.728;2023-04-24T06:28:33;7.53;;;3.23;;
19084;SDS011;9675;51.538;6.728;2023-04-24T06:31:00;6.17;;;3.50;;
19084;SDS011;9675;51.538;6.728;2023-04-24T06:33:28;9.23;;;4.00;;
19084;SDS011;9675;51.538;6.728;2023-04-24T06:35:55;6.33;;;3.00;;
19084;SDS011;9675;51.538;6.728;2023-04-24T06:38:22;4.37;;;2.57;;
19084;SDS011;9675;51.538;6.728;2023-04-24T06:40:50;5.83;;;2.93;;
19084;SDS011;9675;51.538;6.728;2023-04-24T06:43:17;7.47;;;3.80;;
19084;SDS011;9675;51.538;6.728;2023-04-24T06:45:45;3.70;;;2.27;;
19084;SDS011;9675;51.538;6.728;2023-04-24T06:48:12;6.43;;;3.07;;
19084;SDS011;9675;51.538;6.728;2023-04-24T06:50:41;5.17;;;3.00;;
19084;SDS011;9675;51.538;6.728;2023-04-24T06:53:08;5.77;;;3.20;;
19084;SDS011;9675;51.538;6.728;2023-04-24T06:55:37;2.77;;;2.07;;
19084;SDS011;9675;51.538;6.728;2023-04-24T06:58:04;4.73;;;2.80;;
19084;SDS011;9675;51.538;6.728;2023-04-24T07:00:32;4.93;;;3.40;;
19084;SDS011;9675;51.538;6.728;2023-04-24T07:02:59;6.27;;;1.97;;
19084;SDS011;9675;51.538;6.728;2023-04-24T07:05:26;3.57;;;2.17;;
19084;SDS011;9675;51.538;6.728;2023-04-24T07:07:54;3.27;;;1.63;;
19084;SDS011;9675;51.538;6.728;2023-04-24T07:10:23;1.63;;;1.40;;
19084;SDS011;9675;51.538;6.728;2023-04-24T07:12:52;3.27;;;1.40;;
19084;SDS011;9675;51.538;6.728;2023-04-24T07:15:19;2.70;;;1.67;;
19084;SDS011;9675;51.538;6.728;2023-04-24T07:17:46;3.17;;;1.83;;
19084;SDS011;9675;51.538;6.728;2023-04-24T07:20:13;1.63;;;1.13;;
19084;SDS011;9675;51.538;6.728;2023-04-24T07:22:40;5.27;;;1.90;;
19084;SDS011;9675;51.538;6.728;2023-04-24T07:25:09;8.37;;;3.83;;
19084;SDS011;9675;51.538;6.728;2023-04-24T07:27:36;3.17;;;1.50;;
19084;SDS011;9675;51.538;6.728;2023-04-24T07:30:04;3.50;;;2.27;;
19084;SDS011;9675;51.538;6.728;2023-04-24T07:32:33;2.60;;;1.20;;
19084;SDS011;9675;51.538;6.728;2023-04-24T07:35:00;2.43;;;1.47;;
19084;SDS011;9675;51.538;6.728;2023-04-24T07:37:28;2.43;;;0.90;;
19084;SDS011;9675;51.538;6.728;2023-04-24T07:39:55;1.93;;;1.10;;
19084;SDS011;9675;51.538;6.728;2023-04-24T07:42:24;2.87;;;1.57;;
19084;SDS011;9675;51.538;6.728;2023-04-24T07:44:51;1.40;;;1.30;;
19084;SDS011;9675;51.538;6.728;2023-04-24T07:47:18;0.97;;;0.77;;
19084;SDS011;9675;51.538;6.728;2023-04-24T07:49:45;1.30;;;0.63;;
19084;SDS011;9675;51.538;6.728;2023-04-24T07:52:12;2.73;;;1.10;;
19084;SDS011;9675;51.538;6.728;2023-04-24T07:54:39;1.37;;;1.27;;
19084;SDS011;9675;51.538;6.728;2023-04-24T07:57:07;0.90;;;0.67;;
19084;SDS011;9675;51.538;6.728;2023-04-24T07:59:36;0.70;;;0.57;;
19084;SDS011;9675;51.538;6.728;2023-04-24T08:02:03;4.03;;;2.23;;
19084;SDS011;9675;51.538;6.728;2023-04-24T08:04:31;0.93;;;0.43;;
19084;SDS011;9675;51.538;6.728;2023-04-24T08:06:58;0.50;;;0.50;;
19084;SDS011;9675;51.538;6.728;2023-04-24T08:09:25;2.40;;;0.50;;
19084;SDS011;9675;51.538;6.728;2023-04-24T08:11:52;0.97;;;0.87;;
19084;SDS011;9675;51.538;6.728;2023-04-24T08:14:19;1.50;;;0.80;;
19084;SDS011;9675;51.538;6.728;2023-04-24T08:16:47;0.63;;;0.60;;
19084;SDS011;9675;51.538;6.728;2023-04-24T08:19:14;1.20;;;0.80;;
19084;SDS011;9675;51.538;6.728;2023-04-24T08:21:43;0.57;;;0.40;;
19084;SDS011;9675;51.538;6.728;2023-04-24T08:24:10;0.53;;;0.40;;
19084;SDS011;9675;51.538;6.728;2023-04-24T08:26:37;0.23;;;0.20;;
19084;SDS011;9675;51.538;6.728;2023-04-24T08:29:04;0.40;;;0.30;;
19084;SDS011;9675;51.538;6.728;2023-04-24T08:31:31;1.57;;;0.70;;
19084;SDS011;9675;51.538;6.728;2023-04-24T08:34:00;0.77;;;0.40;;
19084;SDS011;9675;51.538;6.728;2023-04-24T08:36:27;0.20;;;0.20;;
19084;SDS011;9675;51.538;6.728;2023-04-24T08:38:54;0.50;;;0.33;;
19084;SDS011;9675;51.538;6.728;2023-04-24T08:41:21;0.10;;;0.10;;
19084;SDS011;9675;51.538;6.728;2023-04-24T08:43:51;0.23;;;0.23;;
19084;SDS011;9675;51.538;6.728;2023-04-24T08:46:20;0.20;;;0.20;;
19084;SDS011;9675;51.538;6.728;2023-04-24T08:48:48;1.20;;;0.37;;
19084;SDS011;9675;51.538;6.728;2023-04-24T08:51:18;0.20;;;0.20;;
19084;SDS011;9675;51.538;6.728;2023-04-24T08:53:46;0.70;;;0.33;;
19084;SDS011;9675;51.538;6.728;2023-04-24T08:56:14;0.30;;;0.10;;
19084;SDS011;9675;51.538;6.728;2023-04-24T08:58:42;0.13;;;0.10;;
19084;SDS011;9675;51.538;6.728;2023-04-24T09:01:10;3.30;;;0.30;;
19084;SDS011;9675;51.538;6.728;2023-04-24T09:03:38;1.50;;;0.40;;
19084;SDS011;9675;51.538;6.728;2023-04-24T09:06:06;0.10;;;0.10;;
19084;SDS011;9675;51.538;6.728;2023-04-24T09:08:38;0.93;;;0.77;;
19084;SDS011;9675;51.538;6.728;2023-04-24T09:11:07;0.93;;;0.53;;
19084;SDS011;9675;51.538;6.728;2023-04-24T09:13:35;1.27;;;0.60;;
19084;SDS011;9675;51.538;6.728;2023-04-24T09:16:03;3.53;;;1.20;;
19084;SDS011;9675;51.538;6.728;2023-04-24T09:18:30;2.03;;;0.87;;
19084;SDS011;9675;51.538;6.728;2023-04-24T09:20:58;1.70;;;1.13;;
19084;SDS011;9675;51.538;6.728;2023-04-24T09:23:28;3.00;;;1.63;;
19084;SDS011;9675;51.538;6.728;2023-04-24T09:25:58;2.20;;;1.50;;
19084;SDS011;9675;51.538;6.728;2023-04-24T09:28:29;0.97;;;0.67;;
19084;SDS011;9675;51.538;6.728;2023-04-24T09:31:04;4.00;;;1.63;;
19084;SDS011;9675;51.538;6.728;2023-04-24T09:33:33;1.83;;;1.13;;
19084;SDS011;9675;51.538;6.728;2023-04-24T09:36:01;4.20;;;1.57;;
19084;SDS011;9675;51.538;6.728;2023-04-24T09:38:33;4.17;;;1.87;;
19084;SDS011;9675;51.538;6.728;2023-04-24T09:41:04;1.83;;;0.93;;
19084;SDS011;9675;51.538;6.728;2023-04-24T09:43:33;2.83;;;1.83;;
19084;SDS011;9675;51.538;6.728;2023-04-24T09:46:04;2.53;;;1.77;;
19084;SDS011;9675;51.538;6.728;2023-04-24T09:48:35;4.43;;;2.03;;
19084;SDS011;9675;51.538;6.728;2023-04-24T09:51:04;3.30;;;1.70;;
19084;SDS011;9675;51.538;6.728;2023-04-24T09:53:35;1.83;;;1.30;;
19084;SDS011;9675;51.538;6.728;2023-04-24T09:56:08;2.60;;;1.50;;
19084;SDS011;9675;51.538;6.728;2023-04-24T09:58:37;2.10;;;1.33;;
19084;SDS011;9675;51.538;6.728;2023-04-24T10:01:05;12.80;;;1.57;;
19084;SDS011;9675;51.538;6.728;2023-04-24T10:03:32;5.70;;;1.93;;
19084;SDS011;9675;51.538;6.728;2023-04-24T10:06:01;1.87;;;1.43;;
19084;SDS011;9675;51.538;6.728;2023-04-24T10:08:33;5.83;;;2.00;;
19084;SDS011;9675;51.538;6.728;2023-04-24T10:11:02;8.03;;;3.07;;
19084;SDS011;9675;51.538;6.728;2023-04-24T10:13:30;3.50;;;1.77;;
19084;SDS011;9675;51.538;6.728;2023-04-24T10:15:59;1.80;;;0.67;;
19084;SDS011;9675;51.538;6.728;2023-04-24T10:18:29;5.27;;;1.73;;
19084;SDS011;9675;51.538;6.728;2023-04-24T10:20:57;2.10;;;1.27;;
19084;SDS011;9675;51.538;6.728;2023-04-24T10:23:27;4.43;;;1.27;;
19084;SDS011;9675;51.538;6.728;2023-04-24T10:25:56;0.40;;;0.37;;
19084;SDS011;9675;51.538;6.728;2023-04-24T10:28:24;3.63;;;1.47;;
19084;SDS011;9675;51.538;6.728;2023-04-24T10:30:55;2.93;;;1.50;;
19084;SDS011;9675;51.538;6.728;2023-04-24T10:33:24;5.73;;;1.47;;
19084;SDS011;9675;51.538;6.728;2023-04-24T10:35:53;5.23;;;1.23;;
19084;SDS011;9675;51.538;6.728;2023-04-24T10:38:24;5.50;;;1.67;;
19084;SDS011;9675;51.538;6.728;2023-04-24T10:40:57;5.57;;;1.87;;
19084;SDS011;9675;51.538;6.728;2023-04-24T10:43:34;1.60;;;1.30;;
19084;SDS011;9675;51.538;6.728;2023-04-24T10:46:03;4.80;;;1.20;;
19084;SDS011;9675;51.538;6.728;2023-04-24T10:48:33;7.93;;;1.87;;
19084;SDS011;9675;51.538;6.728;2023-04-24T10:51:00;5.50;;;1.43;;
19084;SDS011;9675;51.538;6.728;2023-04-24T10:53:29;1.87;;;0.57;;
19084;SDS011;9675;51.538;6.728;2023-04-24T10:55:57;4.60;;;1.90;;
19084;SDS011;9675;51.538;6.728;2023-04-24T10:58:35;6.20;;;2.03;;
19084;SDS011;9675;51.538;6.728;2023-04-24T11:01:06;2.93;;;1.00;;
19084;SDS011;9675;51.538;6.728;2023-04-24T11:03:34;1.50;;;1.07;;
19084;SDS011;9675;51.538;6.728;2023-04-24T11:06:03;4.73;;;1.50;;
19084;SDS011;9675;51.538;6.728;2023-04-24T11:08:32;7.60;;;1.47;;
19084;SDS011;9675;51.538;6.728;2023-04-24T11:11:08;7.97;;;1.70;;
19084;SDS011;9675;51.538;6.728;2023-04-24T11:16:37;2.87;;;1.57;;
19084;SDS011;9675;51.538;6.728;2023-04-24T11:19:17;8.17;;;2.27;;
19084;SDS011;9675;51.538;6.728;2023-04-24T11:21:50;2.93;;;0.50;;
19084;SDS011;9675;51.538;6.728;2023-04-24T11:24:25;7.03;;;1.77;;
19084;SDS011;9675;51.538;6.728;2023-04-24T11:26:56;6.60;;;1.90;;
19084;SDS011;9675;51.538;6.728;2023-04-24T11:29:42;0.73;;;0.53;;
19084;SDS011;9675;51.538;6.728;2023-04-24T11:32:23;6.30;;;1.27;;
19084;SDS011;9675;51.538;6.728;2023-04-24T11:34:53;0.87;;;0.63;;
19084;SDS011;9675;51.538;6.728;2023-04-24T11:37:23;6.90;;;1.40;;
19084;SDS011;9675;51.538;6.728;2023-04-24T11:39:55;3.37;;;1.10;;
19084;SDS011;9675;51.538;6.728;2023-04-24T11:42:26;4.30;;;1.40;;
19084;SDS011;9675;51.538;6.728;2023-04-24T11:44:58;4.40;;;1.43;;
19084;SDS011;9675;51.538;6.728;2023-04-24T11:47:31;6.70;;;1.60;;
19084;SDS011;9675;51.538;6.728;2023-04-24T11:50:02;1.17;;;0.77;;
19084;SDS011;9675;51.538;6.728;2023-04-24T11:52:33;0.40;;;0.33;;
19084;SDS011;9675;51.538;6.728;2023-04-24T11:55:06;3.37;;;1.80;;
19084;SDS011;9675;51.538;6.728;2023-04-24T11:57:49;3.13;;;0.83;;
19084;SDS011;9675;51.538;6.728;2023-04-24T12:00:22;4.17;;;1.07;;
19084;SDS011;9675;51.538;6.728;2023-04-24T12:03:02;7.33;;;1.27;;
19084;SDS011;9675;51.538;6.728;2023-04-24T12:05:32;4.63;;;2.00;;
19084;SDS011;9675;51.538;6.728;2023-04-24T12:08:00;1.37;;;0.80;;
19084;SDS011;9675;51.538;6.728;2023-04-24T12:10:28;1.10;;;0.47;;
19084;SDS011;9675;51.538;6.728;2023-04-24T12:12:58;6.23;;;1.17;;
19084;SDS011;9675;51.538;6.728;2023-04-24T12:15:26;0.93;;;0.60;;
19084;SDS011;9675;51.538;6.728;2023-04-24T12:17:55;2.57;;;1.00;;
19084;SDS011;9675;51.538;6.728;2023-04-24T12:20:26;0.47;;;0.40;;
19084;SDS011;9675;51.538;6.728;2023-04-24T12:22:59;3.00;;;1.43;;
19084;SDS011;9675;51.538;6.728;2023-04-24T12:25:28;1.70;;;1.10;;
19084;SDS011;9675;51.538;6.728;2023-04-24T12:28:08;2.57;;;1.10;;
19084;SDS011;9675;51.538;6.728;2023-04-24T12:30:39;2.43;;;1.00;;
19084;SDS011;9675;51.538;6.728;2023-04-24T12:33:10;0.60;;;0.60;;
19084;SDS011;9675;51.538;6.728;2023-04-24T12:35:39;2.63;;;1.00;;
19084;SDS011;9675;51.538;6.728;2023-04-24T12:38:07;2.63;;;0.90;;
19084;SDS011;9675;51.538;6.728;2023-04-24T12:40:37;1.23;;;0.70;;
19084;SDS011;9675;51.538;6.728;2023-04-24T12:43:13;4.97;;;1.07;;
19084;SDS011;9675;51.538;6.728;2023-04-24T12:45:55;1.77;;;0.90;;
19084;SDS011;9675;51.538;6.728;2023-04-24T12:48:25;1.80;;;0.70;;
19084;SDS011;9675;51.538;6.728;2023-04-24T12:50:53;0.90;;;0.60;;
19084;SDS011;9675;51.538;6.728;2023-04-24T12:53:25;0.83;;;0.60;;
19084;SDS011;9675;51.538;6.728;2023-04-24T12:55:54;1.33;;;0.77;;
19084;SDS011;9675;51.538;6.728;2023-04-24T12:58:25;4.67;;;0.73;;
19084;SDS011;9675;51.538;6.728;2023-04-24T13:00:57;2.37;;;0.80;;
19084;SDS011;9675;51.538;6.728;2023-04-24T13:03:27;0.83;;;0.40;;
19084;SDS011;9675;51.538;6.728;2023-04-24T13:05:54;2.03;;;0.67;;
19084;SDS011;9675;51.538;6.728;2023-04-24T13:08:21;1.57;;;1.03;;
19084;SDS011;9675;51.538;6.728;2023-04-24T13:10:49;0.63;;;0.53;;
19084;SDS011;9675;51.538;6.728;2023-04-24T13:13:17;0.33;;;0.33;;
19084;SDS011;9675;51.538;6.728;2023-04-24T13:15:44;1.27;;;0.80;;
19084;SDS011;9675;51.538;6.728;2023-04-24T13:18:11;1.47;;;0.30;;
19084;SDS011;9675;51.538;6.728;2023-04-24T13:20:39;1.07;;;0.43;;
19084;SDS011;9675;51.538;6.728;2023-04-24T13:23:06;1.90;;;0.80;;
19084;SDS011;9675;51.538;6.728;2023-04-24T13:25:34;0.77;;;0.73;;
19084;SDS011;9675;51.538;6.728;2023-04-24T13:28:04;0.50;;;0.50;;
19084;SDS011;9675;51.538;6.728;2023-04-24T13:30:31;1.60;;;1.10;;
19084;SDS011;9675;51.538;6.728;2023-04-24T13:32:59;1.80;;;0.93;;
19084;SDS011;9675;51.538;6.728;2023-04-24T13:35:26;1.10;;;0.60;;
19084;SDS011;9675;51.538;6.728;2023-04-24T13:37:55;2.67;;;1.40;;
19084;SDS011;9675;51.538;6.728;2023-04-24T13:40:22;2.63;;;0.83;;
19084;SDS011;9675;51.538;6.728;2023-04-24T13:42:49;1.70;;;0.70;;
19084;SDS011;9675;51.538;6.728;2023-04-24T13:45:16;1.17;;;0.57;;
19084;SDS011;9675;51.538;6.728;2023-04-24T13:47:43;0.90;;;0.50;;
19084;SDS011;9675;51.538;6.728;2023-04-24T13:50:10;0.87;;;0.50;;
19084;SDS011;9675;51.538;6.728;2023-04-24T13:52:38;0.70;;;0.57;;
19084;SDS011;9675;51.538;6.728;2023-04-24T13:55:07;0.73;;;0.50;;
19084;SDS011;9675;51.538;6.728;2023-04-24T13:57:34;3.93;;;0.90;;
19084;SDS011;9675;51.538;6.728;2023-04-24T14:00:02;1.97;;;0.60;;
19084;SDS011;9675;51.538;6.728;2023-04-24T14:02:35;2.00;;;0.63;;
19084;SDS011;9675;51.538;6.728;2023-04-24T14:05:02;0.63;;;0.63;;
19084;SDS011;9675;51.538;6.728;2023-04-24T14:07:30;4.50;;;0.80;;
19084;SDS011;9675;51.538;6.728;2023-04-24T14:09:57;1.83;;;0.63;;
19084;SDS011;9675;51.538;6.728;2023-04-24T14:12:26;1.50;;;0.90;;
19084;SDS011;9675;51.538;6.728;2023-04-24T14:14:53;3.20;;;0.97;;
19084;SDS011;9675;51.538;6.728;2023-04-24T14:17:20;1.43;;;0.83;;
19084;SDS011;9675;51.538;6.728;2023-04-24T14:19:47;0.23;;;0.23;;
19084;SDS011;9675;51.538;6.728;2023-04-24T14:22:15;0.20;;;0.20;;
19084;SDS011;9675;51.538;6.728;2023-04-24T14:24:42;0.70;;;0.70;;
19084;SDS011;9675;51.538;6.728;2023-04-24T14:27:09;2.80;;;0.70;;
19084;SDS011;9675;51.538;6.728;2023-04-24T14:29:37;1.90;;;0.90;;
19084;SDS011;9675;51.538;6.728;2023-04-24T14:32:04;0.87;;;0.50;;
19084;SDS011;9675;51.538;6.728;2023-04-24T14:34:31;0.70;;;0.50;;
19084;SDS011;9675;51.538;6.728;2023-04-24T14:36:58;1.63;;;0.53;;
19084;SDS011;9675;51.538;6.728;2023-04-24T14:39:25;7.87;;;3.53;;
19084;SDS011;9675;51.538;6.728;2023-04-24T14:41:52;2.30;;;0.90;;
19084;SDS011;9675;51.538;6.728;2023-04-24T14:44:22;2.43;;;0.80;;
19084;SDS011;9675;51.538;6.728;2023-04-24T14:46:51;2.30;;;0.87;;
19084;SDS011;9675;51.538;6.728;2023-04-24T14:49:18;2.27;;;0.77;;
19084;SDS011;9675;51.538;6.728;2023-04-24T14:51:45;0.60;;;0.53;;
19084;SDS011;9675;51.538;6.728;2023-04-24T14:54:12;0.60;;;0.43;;
19084;SDS011;9675;51.538;6.728;2023-04-24T14:56:39;3.83;;;1.13;;
19084;SDS011;9675;51.538;6.728;2023-04-24T14:59:08;2.63;;;0.50;;
19084;SDS011;9675;51.538;6.728;2023-04-24T15:01:35;0.67;;;0.50;;
19084;SDS011;9675;51.538;6.728;2023-04-24T15:04:04;0.77;;;0.50;;
19084;SDS011;9675;51.538;6.728;2023-04-24T15:06:31;1.70;;;0.70;;
19084;SDS011;9675;51.538;6.728;2023-04-24T15:08:58;2.37;;;0.57;;
19084;SDS011;9675;51.538;6.728;2023-04-24T15:11:25;0.60;;;0.60;;